sensor_id;sensor_type;location;lat;lon;timestamp;P1;durP1;ratioP1;P2;durP2;ratioP2
3141;SDS011;1581;51.568;6.998;2023-04-25T00:01:36;12.43;;;4.13;;
3141;SDS011;1581;51.568;6.998;2023-04-25T00:04:04;16.67;;;4.90;;
3141;SDS011;1581;51.568;6.998;2023-04-25T00:06:32;9.17;;;4.30;;
3141;SDS011;1581;51.568;6.998;2023-04-25T00:09:02;15.10;;;4.50;;
3141;SDS011;1581;51.568;6.998;2023-04-25T00:11:32;6.53;;;3.50;;
3141;SDS011;1581;51.568;6.998;2023-04-25T00:14:00;15.77;;;5.10;;
3141;SDS011;1581;51.568;6.998;2023-04-25T00:16:29;9.07;;;4.77;;
3141;SDS011;1581;51.568;6.998;2023-04-25T00:18:59;10.00;;;4.00;;
3141;SDS011;1581;51.568;6.998;2023-04-25T00:21:28;7.00;;;3.97;;
3141;SDS011;1581;51.568;6.998;2023-04-25T00:23:57;6.73;;;3.67;;
3141;SDS011;1581;51.568;6.998;2023-04-25T00:26:26;9.67;;;5.13;;
3141;SDS011;1581;51.568;6.998;2023-04-25T00:28:54;8.50;;;4.00;;
3141;SDS011;1581;51.568;6.998;2023-04-25T00:31:23;15.43;;;3.80;;
3141;SDS011;1581;51.568;6.998;2023-04-25T00:33:50;14.87;;;4.67;;
3141;SDS011;1581;51.568;6.998;2023-04-25T00:36:18;8.57;;;4.50;;
3141;SDS011;1581;51.568;6.998;2023-04-25T00:38:47;8.73;;;3.27;;
3141;SDS011;1581;51.568;6.998;2023-04-25T00:41:15;13.70;;;3.50;;
3141;SDS011;1581;51.568;6.998;2023-04-25T00:43:44;9.77;;;4.40;;
3141;SDS011;1581;51.568;6.998;2023-04-25T00:46:14;11.03;;;4.10;;
3141;SDS011;1581;51.568;6.998;2023-04-25T00:48:42;9.40;;;3.87;;
3141;SDS011;1581;51.568;6.998;2023-04-25T00:51:09;13.73;;;4.70;;
3141;SDS011;1581;51.568;6.998;2023-04-25T00:53:43;11.23;;;3.73;;
3141;SDS011;1581;51.568;6.998;2023-04-25T00:56:11;11.10;;;4.57;;
3141;SDS011;1581;51.568;6.998;2023-04-25T00:58:40;8.27;;;4.40;;
3141;SDS011;1581;51.568;6.998;2023-04-25T01:01:10;8.83;;;3.97;;
3141;SDS011;1581;51.568;6.998;2023-04-25T01:03:39;7.80;;;4.30;;
3141;SDS011;1581;51.568;6.998;2023-04-25T01:06:08;14.40;;;4.37;;
3141;SDS011;1581;51.568;6.998;2023-04-25T01:08:37;13.63;;;5.23;;
3141;SDS011;1581;51.568;6.998;2023-04-25T01:11:05;8.20;;;3.90;;
3141;SDS011;1581;51.568;6.998;2023-04-25T01:13:34;9.40;;;4.17;;
3141;SDS011;1581;51.568;6.998;2023-04-25T01:16:03;13.10;;;4.43;;
3141;SDS011;1581;51.568;6.998;2023-04-25T01:18:33;18.73;;;4.77;;
3141;SDS011;1581;51.568;6.998;2023-04-25T01:21:05;11.40;;;5.27;;
3141;SDS011;1581;51.568;6.998;2023-04-25T01:23:35;15.80;;;5.20;;
3141;SDS011;1581;51.568;6.998;2023-04-25T01:26:04;12.67;;;5.03;;
3141;SDS011;1581;51.568;6.998;2023-04-25T01:28:33;14.13;;;4.30;;
3141;SDS011;1581;51.568;6.998;2023-04-25T01:31:01;12.80;;;4.77;;
3141;SDS011;1581;51.568;6.998;2023-04-25T01:33:30;13.90;;;5.50;;
3141;SDS011;1581;51.568;6.998;2023-04-25T01:35:58;13.37;;;4.87;;
3141;SDS011;1581;51.568;6.998;2023-04-25T01:38:28;19.97;;;5.20;;
3141;SDS011;1581;51.568;6.998;2023-04-25T01:40:57;15.43;;;5.30;;
3141;SDS011;1581;51.568;6.998;2023-04-25T01:43:25;14.47;;;5.20;;
3141;SDS011;1581;51.568;6.998;2023-04-25T01:45:53;12.03;;;6.17;;
3141;SDS011;1581;51.568;6.998;2023-04-25T01:48:22;15.03;;;4.87;;
3141;SDS011;1581;51.568;6.998;2023-04-25T01:50:49;16.60;;;6.00;;
3141;SDS011;1581;51.568;6.998;2023-04-25T01:53:18;10.67;;;5.10;;
3141;SDS011;1581;51.568;6.998;2023-04-25T01:55:47;9.13;;;4.63;;
3141;SDS011;1581;51.568;6.998;2023-04-25T01:58:15;13.00;;;4.57;;
3141;SDS011;1581;51.568;6.998;2023-04-25T02:00:44;7.00;;;5.30;;
3141;SDS011;1581;51.568;6.998;2023-04-25T02:03:13;13.83;;;5.37;;
3141;SDS011;1581;51.568;6.998;2023-04-25T02:05:41;13.80;;;5.60;;
3141;SDS011;1581;51.568;6.998;2023-04-25T02:08:09;11.43;;;5.33;;
3141;SDS011;1581;51.568;6.998;2023-04-25T02:10:37;12.77;;;5.13;;
3141;SDS011;1581;51.568;6.998;2023-04-25T02:13:07;9.10;;;5.00;;
3141;SDS011;1581;51.568;6.998;2023-04-25T02:15:35;12.50;;;5.50;;
3141;SDS011;1581;51.568;6.998;2023-04-25T02:18:03;9.73;;;4.80;;
3141;SDS011;1581;51.568;6.998;2023-04-25T02:20:32;16.13;;;5.07;;
3141;SDS011;1581;51.568;6.998;2023-04-25T02:23:00;17.13;;;5.50;;
3141;SDS011;1581;51.568;6.998;2023-04-25T02:25:29;12.63;;;4.93;;
3141;SDS011;1581;51.568;6.998;2023-04-25T02:27:57;16.17;;;5.33;;
3141;SDS011;1581;51.568;6.998;2023-04-25T02:30:26;7.73;;;4.13;;
3141;SDS011;1581;51.568;6.998;2023-04-25T02:32:54;10.37;;;4.10;;
3141;SDS011;1581;51.568;6.998;2023-04-25T02:35:22;14.57;;;5.23;;
3141;SDS011;1581;51.568;6.998;2023-04-25T02:37:50;18.67;;;5.50;;
3141;SDS011;1581;51.568;6.998;2023-04-25T02:40:17;8.27;;;4.30;;
3141;SDS011;1581;51.568;6.998;2023-04-25T02:42:45;10.13;;;4.10;;
3141;SDS011;1581;51.568;6.998;2023-04-25T02:45:14;9.53;;;4.17;;
3141;SDS011;1581;51.568;6.998;2023-04-25T02:47:43;16.83;;;4.70;;
3141;SDS011;1581;51.568;6.998;2023-04-25T02:50:12;9.93;;;4.70;;
3141;SDS011;1581;51.568;6.998;2023-04-25T02:52:40;12.70;;;4.33;;
3141;SDS011;1581;51.568;6.998;2023-04-25T02:55:08;19.77;;;4.73;;
3141;SDS011;1581;51.568;6.998;2023-04-25T02:57:37;11.67;;;4.60;;
3141;SDS011;1581;51.568;6.998;2023-04-25T03:00:05;17.93;;;5.10;;
3141;SDS011;1581;51.568;6.998;2023-04-25T03:02:36;14.40;;;5.13;;
3141;SDS011;1581;51.568;6.998;2023-04-25T03:05:06;9.00;;;4.40;;
3141;SDS011;1581;51.568;6.998;2023-04-25T03:07:34;14.73;;;5.53;;
3141;SDS011;1581;51.568;6.998;2023-04-25T03:10:02;9.57;;;4.70;;
3141;SDS011;1581;51.568;6.998;2023-04-25T03:12:31;22.50;;;5.47;;
3141;SDS011;1581;51.568;6.998;2023-04-25T03:14:59;16.63;;;6.63;;
3141;SDS011;1581;51.568;6.998;2023-04-25T03:17:27;16.50;;;5.30;;
3141;SDS011;1581;51.568;6.998;2023-04-25T03:19:55;11.83;;;4.90;;
3141;SDS011;1581;51.568;6.998;2023-04-25T03:22:25;13.93;;;5.27;;
3141;SDS011;1581;51.568;6.998;2023-04-25T03:24:53;14.70;;;4.70;;
3141;SDS011;1581;51.568;6.998;2023-04-25T03:27:20;11.00;;;4.53;;
3141;SDS011;1581;51.568;6.998;2023-04-25T03:29:48;17.37;;;5.40;;
3141;SDS011;1581;51.568;6.998;2023-04-25T03:32:17;14.33;;;5.13;;
3141;SDS011;1581;51.568;6.998;2023-04-25T03:34:45;16.47;;;4.70;;
3141;SDS011;1581;51.568;6.998;2023-04-25T03:37:13;9.50;;;5.03;;
3141;SDS011;1581;51.568;6.998;2023-04-25T03:39:42;13.83;;;6.27;;
3141;SDS011;1581;51.568;6.998;2023-04-25T03:42:10;16.57;;;4.60;;
3141;SDS011;1581;51.568;6.998;2023-04-25T03:44:38;15.77;;;4.50;;
3141;SDS011;1581;51.568;6.998;2023-04-25T03:47:07;20.10;;;6.47;;
3141;SDS011;1581;51.568;6.998;2023-04-25T03:49:35;15.83;;;5.03;;
3141;SDS011;1581;51.568;6.998;2023-04-25T03:52:03;9.97;;;3.43;;
3141;SDS011;1581;51.568;6.998;2023-04-25T03:54:31;8.60;;;2.57;;
3141;SDS011;1581;51.568;6.998;2023-04-25T03:57:01;10.63;;;2.50;;
3141;SDS011;1581;51.568;6.998;2023-04-25T03:59:32;13.50;;;2.77;;
3141;SDS011;1581;51.568;6.998;2023-04-25T04:02:00;12.93;;;3.90;;
3141;SDS011;1581;51.568;6.998;2023-04-25T04:04:28;8.23;;;2.53;;
3141;SDS011;1581;51.568;6.998;2023-04-25T04:06:57;5.80;;;2.50;;
3141;SDS011;1581;51.568;6.998;2023-04-25T04:09:26;2.87;;;1.70;;
3141;SDS011;1581;51.568;6.998;2023-04-25T04:11:53;5.37;;;2.30;;
3141;SDS011;1581;51.568;6.998;2023-04-25T04:14:23;6.70;;;2.80;;
3141;SDS011;1581;51.568;6.998;2023-04-25T04:16:50;10.53;;;2.90;;
3141;SDS011;1581;51.568;6.998;2023-04-25T04:19:18;8.70;;;2.50;;
3141;SDS011;1581;51.568;6.998;2023-04-25T04:21:46;7.10;;;2.00;;
3141;SDS011;1581;51.568;6.998;2023-04-25T04:24:14;12.43;;;2.77;;
3141;SDS011;1581;51.568;6.998;2023-04-25T04:26:43;5.57;;;2.07;;
3141;SDS011;1581;51.568;6.998;2023-04-25T04:29:11;12.93;;;3.23;;
3141;SDS011;1581;51.568;6.998;2023-04-25T04:31:47;13.00;;;2.47;;
3141;SDS011;1581;51.568;6.998;2023-04-25T04:34:15;11.30;;;2.80;;
3141;SDS011;1581;51.568;6.998;2023-04-25T04:36:44;8.47;;;2.90;;
3141;SDS011;1581;51.568;6.998;2023-04-25T04:39:12;9.50;;;2.60;;
3141;SDS011;1581;51.568;6.998;2023-04-25T04:41:40;8.60;;;3.30;;
3141;SDS011;1581;51.568;6.998;2023-04-25T04:44:08;7.57;;;3.27;;
3141;SDS011;1581;51.568;6.998;2023-04-25T04:46:35;7.90;;;3.57;;
3141;SDS011;1581;51.568;6.998;2023-04-25T04:49:08;15.27;;;3.40;;
3141;SDS011;1581;51.568;6.998;2023-04-25T04:51:36;10.53;;;4.93;;
3141;SDS011;1581;51.568;6.998;2023-04-25T04:54:04;16.70;;;5.30;;
3141;SDS011;1581;51.568;6.998;2023-04-25T04:56:32;16.73;;;5.13;;
3141;SDS011;1581;51.568;6.998;2023-04-25T04:59:00;17.57;;;6.13;;
3141;SDS011;1581;51.568;6.998;2023-04-25T05:01:28;12.47;;;5.73;;
3141;SDS011;1581;51.568;6.998;2023-04-25T05:03:56;12.03;;;5.80;;
3141;SDS011;1581;51.568;6.998;2023-04-25T05:06:26;18.73;;;6.43;;
3141;SDS011;1581;51.568;6.998;2023-04-25T05:08:55;16.60;;;6.00;;
3141;SDS011;1581;51.568;6.998;2023-04-25T05:11:23;16.00;;;5.03;;
3141;SDS011;1581;51.568;6.998;2023-04-25T05:13:52;14.07;;;5.60;;
3141;SDS011;1581;51.568;6.998;2023-04-25T05:16:20;21.73;;;6.00;;
3141;SDS011;1581;51.568;6.998;2023-04-25T05:18:48;24.53;;;7.90;;
3141;SDS011;1581;51.568;6.998;2023-04-25T05:21:16;21.13;;;8.13;;
3141;SDS011;1581;51.568;6.998;2023-04-25T05:23:45;21.07;;;7.83;;
3141;SDS011;1581;51.568;6.998;2023-04-25T05:26:13;23.27;;;7.80;;
3141;SDS011;1581;51.568;6.998;2023-04-25T05:28:40;13.47;;;6.50;;
3141;SDS011;1581;51.568;6.998;2023-04-25T05:31:09;19.10;;;6.17;;
3141;SDS011;1581;51.568;6.998;2023-04-25T05:33:37;18.93;;;6.10;;
3141;SDS011;1581;51.568;6.998;2023-04-25T05:36:05;13.63;;;5.97;;
3141;SDS011;1581;51.568;6.998;2023-04-25T05:38:34;16.77;;;6.37;;
3141;SDS011;1581;51.568;6.998;2023-04-25T05:41:04;23.23;;;6.30;;
3141;SDS011;1581;51.568;6.998;2023-04-25T05:43:32;18.23;;;6.10;;
3141;SDS011;1581;51.568;6.998;2023-04-25T05:46:00;19.80;;;6.27;;
3141;SDS011;1581;51.568;6.998;2023-04-25T05:48:27;19.50;;;6.13;;
3141;SDS011;1581;51.568;6.998;2023-04-25T05:50:55;29.13;;;8.30;;
3141;SDS011;1581;51.568;6.998;2023-04-25T05:53:23;32.60;;;7.23;;
3141;SDS011;1581;51.568;6.998;2023-04-25T05:55:51;23.97;;;7.30;;
3141;SDS011;1581;51.568;6.998;2023-04-25T05:58:20;25.40;;;9.03;;
3141;SDS011;1581;51.568;6.998;2023-04-25T06:00:48;34.03;;;7.47;;
3141;SDS011;1581;51.568;6.998;2023-04-25T06:03:16;24.70;;;7.47;;
3141;SDS011;1581;51.568;6.998;2023-04-25T06:05:44;33.03;;;10.00;;
3141;SDS011;1581;51.568;6.998;2023-04-25T06:08:12;24.23;;;10.40;;
3141;SDS011;1581;51.568;6.998;2023-04-25T06:10:40;31.20;;;9.30;;
3141;SDS011;1581;51.568;6.998;2023-04-25T06:13:08;24.23;;;10.33;;
3141;SDS011;1581;51.568;6.998;2023-04-25T06:15:38;23.83;;;9.13;;
3141;SDS011;1581;51.568;6.998;2023-04-25T06:18:06;27.17;;;10.10;;
3141;SDS011;1581;51.568;6.998;2023-04-25T06:20:34;29.67;;;9.73;;
3141;SDS011;1581;51.568;6.998;2023-04-25T06:23:03;27.60;;;10.50;;
3141;SDS011;1581;51.568;6.998;2023-04-25T06:25:31;27.40;;;5.97;;
3141;SDS011;1581;51.568;6.998;2023-04-25T06:28:00;11.70;;;4.13;;
3141;SDS011;1581;51.568;6.998;2023-04-25T06:30:28;15.63;;;4.57;;
3141;SDS011;1581;51.568;6.998;2023-04-25T06:32:57;22.37;;;5.23;;
3141;SDS011;1581;51.568;6.998;2023-04-25T06:35:25;7.83;;;3.50;;
3141;SDS011;1581;51.568;6.998;2023-04-25T06:37:53;14.23;;;6.00;;
3141;SDS011;1581;51.568;6.998;2023-04-25T06:40:23;13.73;;;4.00;;
3141;SDS011;1581;51.568;6.998;2023-04-25T06:42:51;12.70;;;3.33;;
3141;SDS011;1581;51.568;6.998;2023-04-25T06:45:19;5.33;;;2.13;;
3141;SDS011;1581;51.568;6.998;2023-04-25T06:47:47;9.00;;;2.17;;
3141;SDS011;1581;51.568;6.998;2023-04-25T06:50:17;10.80;;;3.10;;
3141;SDS011;1581;51.568;6.998;2023-04-25T06:52:45;5.60;;;2.10;;
3141;SDS011;1581;51.568;6.998;2023-04-25T06:55:13;7.03;;;1.87;;
3141;SDS011;1581;51.568;6.998;2023-04-25T06:57:41;7.07;;;2.07;;
3141;SDS011;1581;51.568;6.998;2023-04-25T07:00:09;5.80;;;2.63;;
3141;SDS011;1581;51.568;6.998;2023-04-25T07:02:38;6.70;;;2.30;;
3141;SDS011;1581;51.568;6.998;2023-04-25T07:05:07;8.67;;;2.27;;
3141;SDS011;1581;51.568;6.998;2023-04-25T07:07:37;9.10;;;1.90;;
3141;SDS011;1581;51.568;6.998;2023-04-25T07:10:06;7.40;;;2.50;;
3141;SDS011;1581;51.568;6.998;2023-04-25T07:12:35;7.97;;;2.50;;
3141;SDS011;1581;51.568;6.998;2023-04-25T07:15:03;4.80;;;2.10;;
3141;SDS011;1581;51.568;6.998;2023-04-25T07:17:35;7.10;;;2.33;;
3141;SDS011;1581;51.568;6.998;2023-04-25T07:20:03;9.03;;;2.53;;
3141;SDS011;1581;51.568;6.998;2023-04-25T07:22:34;8.60;;;2.80;;
3141;SDS011;1581;51.568;6.998;2023-04-25T07:25:04;11.10;;;4.50;;
3141;SDS011;1581;51.568;6.998;2023-04-25T07:27:34;12.50;;;4.27;;
3141;SDS011;1581;51.568;6.998;2023-04-25T07:30:02;11.63;;;3.83;;
3141;SDS011;1581;51.568;6.998;2023-04-25T07:32:31;10.97;;;3.90;;
3141;SDS011;1581;51.568;6.998;2023-04-25T07:35:00;12.50;;;3.60;;
3141;SDS011;1581;51.568;6.998;2023-04-25T07:37:28;9.40;;;2.90;;
3141;SDS011;1581;51.568;6.998;2023-04-25T07:39:57;15.77;;;3.07;;
3141;SDS011;1581;51.568;6.998;2023-04-25T07:42:25;8.83;;;2.80;;
3141;SDS011;1581;51.568;6.998;2023-04-25T07:44:53;6.30;;;2.67;;
3141;SDS011;1581;51.568;6.998;2023-04-25T07:47:21;9.87;;;2.40;;
3141;SDS011;1581;51.568;6.998;2023-04-25T07:49:49;9.80;;;2.80;;
3141;SDS011;1581;51.568;6.998;2023-04-25T07:52:17;11.57;;;1.90;;
3141;SDS011;1581;51.568;6.998;2023-04-25T07:54:46;10.47;;;1.73;;
3141;SDS011;1581;51.568;6.998;2023-04-25T07:57:16;8.77;;;2.63;;
3141;SDS011;1581;51.568;6.998;2023-04-25T07:59:45;8.10;;;2.30;;
3141;SDS011;1581;51.568;6.998;2023-04-25T08:02:12;13.23;;;2.23;;
3141;SDS011;1581;51.568;6.998;2023-04-25T08:04:40;9.40;;;2.10;;
3141;SDS011;1581;51.568;6.998;2023-04-25T08:07:08;12.67;;;3.27;;
3141;SDS011;1581;51.568;6.998;2023-04-25T08:09:36;14.13;;;3.60;;
3141;SDS011;1581;51.568;6.998;2023-04-25T08:12:04;12.03;;;2.60;;
3141;SDS011;1581;51.568;6.998;2023-04-25T08:14:34;12.43;;;2.73;;
3141;SDS011;1581;51.568;6.998;2023-04-25T08:17:05;8.60;;;2.57;;
3141;SDS011;1581;51.568;6.998;2023-04-25T08:19:33;8.10;;;2.10;;
3141;SDS011;1581;51.568;6.998;2023-04-25T08:22:01;6.00;;;2.10;;
3141;SDS011;1581;51.568;6.998;2023-04-25T08:24:28;13.93;;;2.67;;
3141;SDS011;1581;51.568;6.998;2023-04-25T08:26:57;13.33;;;3.60;;
3141;SDS011;1581;51.568;6.998;2023-04-25T08:29:25;10.43;;;2.27;;
3141;SDS011;1581;51.568;6.998;2023-04-25T08:31:55;12.63;;;2.33;;
3141;SDS011;1581;51.568;6.998;2023-04-25T08:34:23;6.30;;;2.40;;
3141;SDS011;1581;51.568;6.998;2023-04-25T08:36:51;10.50;;;2.53;;
3141;SDS011;1581;51.568;6.998;2023-04-25T08:39:18;9.87;;;1.70;;
3141;SDS011;1581;51.568;6.998;2023-04-25T08:41:46;6.17;;;2.33;;
3141;SDS011;1581;51.568;6.998;2023-04-25T08:44:15;11.90;;;2.90;;
3141;SDS011;1581;51.568;6.998;2023-04-25T08:46:44;10.00;;;3.20;;
3141;SDS011;1581;51.568;6.998;2023-04-25T08:49:18;9.23;;;1.87;;
3141;SDS011;1581;51.568;6.998;2023-04-25T08:51:46;9.87;;;2.37;;
3141;SDS011;1581;51.568;6.998;2023-04-25T08:54:15;11.63;;;2.30;;
3141;SDS011;1581;51.568;6.998;2023-04-25T08:56:47;7.87;;;2.23;;
3141;SDS011;1581;51.568;6.998;2023-04-25T08:59:15;9.10;;;2.13;;
3141;SDS011;1581;51.568;6.998;2023-04-25T09:01:44;5.70;;;2.10;;
3141;SDS011;1581;51.568;6.998;2023-04-25T09:04:12;8.80;;;1.90;;
3141;SDS011;1581;51.568;6.998;2023-04-25T09:06:43;13.77;;;3.40;;
3141;SDS011;1581;51.568;6.998;2023-04-25T09:09:11;6.10;;;2.10;;
3141;SDS011;1581;51.568;6.998;2023-04-25T09:11:39;15.53;;;2.07;;
3141;SDS011;1581;51.568;6.998;2023-04-25T09:14:10;12.47;;;3.03;;
3141;SDS011;1581;51.568;6.998;2023-04-25T09:16:59;10.00;;;2.80;;
3141;SDS011;1581;51.568;6.998;2023-04-25T09:19:33;13.97;;;2.17;;
3141;SDS011;1581;51.568;6.998;2023-04-25T09:22:06;7.30;;;1.87;;
3141;SDS011;1581;51.568;6.998;2023-04-25T09:24:35;3.30;;;1.80;;
3141;SDS011;1581;51.568;6.998;2023-04-25T09:27:04;6.63;;;1.37;;
3141;SDS011;1581;51.568;6.998;2023-04-25T09:29:34;9.93;;;2.07;;
3141;SDS011;1581;51.568;6.998;2023-04-25T09:32:10;6.00;;;1.77;;
3141;SDS011;1581;51.568;6.998;2023-04-25T09:34:43;6.57;;;1.77;;
3141;SDS011;1581;51.568;6.998;2023-04-25T09:37:18;10.17;;;2.13;;
3141;SDS011;1581;51.568;6.998;2023-04-25T09:39:47;7.70;;;2.10;;
3141;SDS011;1581;51.568;6.998;2023-04-25T09:42:16;3.60;;;1.37;;
3141;SDS011;1581;51.568;6.998;2023-04-25T09:44:51;9.83;;;1.77;;
3141;SDS011;1581;51.568;6.998;2023-04-25T09:47:22;7.93;;;1.63;;
3141;SDS011;1581;51.568;6.998;2023-04-25T09:49:52;1.90;;;1.10;;
3141;SDS011;1581;51.568;6.998;2023-04-25T09:52:23;12.83;;;1.47;;
3141;SDS011;1581;51.568;6.998;2023-04-25T09:54:51;10.67;;;1.77;;
3141;SDS011;1581;51.568;6.998;2023-04-25T09:57:20;8.90;;;2.50;;
3141;SDS011;1581;51.568;6.998;2023-04-25T09:59:51;3.90;;;0.97;;
3141;SDS011;1581;51.568;6.998;2023-04-25T10:02:21;5.53;;;1.50;;
3141;SDS011;1581;51.568;6.998;2023-04-25T10:04:51;3.07;;;1.33;;
3141;SDS011;1581;51.568;6.998;2023-04-25T10:07:20;4.27;;;1.33;;
3141;SDS011;1581;51.568;6.998;2023-04-25T10:09:58;4.53;;;1.23;;
3141;SDS011;1581;51.568;6.998;2023-04-25T10:12:28;2.33;;;1.13;;
3141;SDS011;1581;51.568;6.998;2023-04-25T10:14:57;6.93;;;1.73;;
3141;SDS011;1581;51.568;6.998;2023-04-25T10:17:26;5.73;;;2.07;;
3141;SDS011;1581;51.568;6.998;2023-04-25T10:19:54;5.03;;;2.13;;
3141;SDS011;1581;51.568;6.998;2023-04-25T10:22:26;8.20;;;1.60;;
3141;SDS011;1581;51.568;6.998;2023-04-25T10:24:59;7.43;;;1.33;;
3141;SDS011;1581;51.568;6.998;2023-04-25T10:27:29;7.73;;;1.80;;
3141;SDS011;1581;51.568;6.998;2023-04-25T10:30:00;4.40;;;1.20;;
3141;SDS011;1581;51.568;6.998;2023-04-25T10:32:30;4.13;;;1.30;;
3141;SDS011;1581;51.568;6.998;2023-04-25T10:35:09;3.87;;;1.33;;
3141;SDS011;1581;51.568;6.998;2023-04-25T10:37:44;8.50;;;1.53;;
3141;SDS011;1581;51.568;6.998;2023-04-25T10:40:29;9.13;;;1.70;;
3141;SDS011;1581;51.568;6.998;2023-04-25T10:43:33;3.23;;;1.60;;
3141;SDS011;1581;51.568;6.998;2023-04-25T10:46:13;7.27;;;1.30;;
3141;SDS011;1581;51.568;6.998;2023-04-25T10:48:44;6.93;;;1.70;;
3141;SDS011;1581;51.568;6.998;2023-04-25T10:51:19;9.23;;;2.47;;
3141;SDS011;1581;51.568;6.998;2023-04-25T10:53:59;10.30;;;2.77;;
3141;SDS011;1581;51.568;6.998;2023-04-25T10:56:29;8.07;;;1.30;;
3141;SDS011;1581;51.568;6.998;2023-04-25T10:59:05;5.27;;;1.30;;
3141;SDS011;1581;51.568;6.998;2023-04-25T11:01:36;5.27;;;1.27;;
3141;SDS011;1581;51.568;6.998;2023-04-25T11:04:06;5.80;;;1.40;;
3141;SDS011;1581;51.568;6.998;2023-04-25T11:06:46;8.27;;;1.83;;
3141;SDS011;1581;51.568;6.998;2023-04-25T11:09:39;4.27;;;1.40;;
3141;SDS011;1581;51.568;6.998;2023-04-25T11:12:08;3.03;;;1.20;;
3141;SDS011;1581;51.568;6.998;2023-04-25T11:14:37;7.03;;;1.40;;
3141;SDS011;1581;51.568;6.998;2023-04-25T11:17:05;6.10;;;1.30;;
3141;SDS011;1581;51.568;6.998;2023-04-25T11:19:34;1.53;;;1.00;;
3141;SDS011;1581;51.568;6.998;2023-04-25T11:22:02;7.10;;;1.33;;
3141;SDS011;1581;51.568;6.998;2023-04-25T11:24:32;6.63;;;1.90;;
3141;SDS011;1581;51.568;6.998;2023-04-25T11:27:03;2.83;;;1.03;;
3141;SDS011;1581;51.568;6.998;2023-04-25T11:29:32;1.90;;;1.20;;
3141;SDS011;1581;51.568;6.998;2023-04-25T11:32:01;5.05;;;1.10;;
3141;SDS011;1581;51.568;6.998;2023-04-25T11:34:29;2.97;;;1.25;;
3141;SDS011;1581;51.568;6.998;2023-04-25T11:36:58;3.50;;;0.90;;
3141;SDS011;1581;51.568;6.998;2023-04-25T11:39:27;3.47;;;1.00;;
3141;SDS011;1581;51.568;6.998;2023-04-25T11:41:55;3.30;;;1.13;;
3141;SDS011;1581;51.568;6.998;2023-04-25T11:44:25;3.80;;;1.20;;
3141;SDS011;1581;51.568;6.998;2023-04-25T11:46:53;4.15;;;1.08;;
3141;SDS011;1581;51.568;6.998;2023-04-25T11:49:21;2.20;;;0.85;;
3141;SDS011;1581;51.568;6.998;2023-04-25T11:51:50;2.15;;;1.02;;
3141;SDS011;1581;51.568;6.998;2023-04-25T11:54:19;3.25;;;1.20;;
3141;SDS011;1581;51.568;6.998;2023-04-25T11:56:49;1.13;;;0.80;;
3141;SDS011;1581;51.568;6.998;2023-04-25T11:59:17;1.50;;;1.10;;
3141;SDS011;1581;51.568;6.998;2023-04-25T12:01:52;2.90;;;0.80;;
3141;SDS011;1581;51.568;6.998;2023-04-25T12:04:21;1.50;;;0.93;;
3141;SDS011;1581;51.568;6.998;2023-04-25T12:06:51;2.58;;;1.33;;
3141;SDS011;1581;51.568;6.998;2023-04-25T12:09:20;2.88;;;1.13;;
3141;SDS011;1581;51.568;6.998;2023-04-25T12:11:55;6.05;;;1.25;;
3141;SDS011;1581;51.568;6.998;2023-04-25T12:14:29;3.33;;;1.10;;
3141;SDS011;1581;51.568;6.998;2023-04-25T12:16:59;4.53;;;1.10;;
3141;SDS011;1581;51.568;6.998;2023-04-25T12:19:31;4.63;;;1.30;;
3141;SDS011;1581;51.568;6.998;2023-04-25T12:22:00;2.80;;;1.10;;
3141;SDS011;1581;51.568;6.998;2023-04-25T12:24:32;4.67;;;1.43;;
3141;SDS011;1581;51.568;6.998;2023-04-25T12:27:01;5.67;;;1.43;;
3141;SDS011;1581;51.568;6.998;2023-04-25T12:29:34;4.43;;;1.27;;
3141;SDS011;1581;51.568;6.998;2023-04-25T12:32:02;8.20;;;1.27;;
3141;SDS011;1581;51.568;6.998;2023-04-25T12:34:31;5.13;;;1.07;;
3141;SDS011;1581;51.568;6.998;2023-04-25T12:37:00;4.77;;;1.23;;
3141;SDS011;1581;51.568;6.998;2023-04-25T12:39:29;4.50;;;1.00;;
3141;SDS011;1581;51.568;6.998;2023-04-25T12:41:57;6.53;;;1.57;;
3141;SDS011;1581;51.568;6.998;2023-04-25T12:44:26;4.33;;;1.10;;
3141;SDS011;1581;51.568;6.998;2023-04-25T12:46:56;5.83;;;1.20;;
3141;SDS011;1581;51.568;6.998;2023-04-25T12:49:24;6.27;;;1.43;;
3141;SDS011;1581;51.568;6.998;2023-04-25T12:51:52;7.57;;;1.40;;
3141;SDS011;1581;51.568;6.998;2023-04-25T12:54:20;5.10;;;1.73;;
3141;SDS011;1581;51.568;6.998;2023-04-25T12:56:47;6.50;;;2.43;;
3141;SDS011;1581;51.568;6.998;2023-04-25T12:59:16;4.20;;;1.50;;
3141;SDS011;1581;51.568;6.998;2023-04-25T13:01:45;4.33;;;1.80;;
3141;SDS011;1581;51.568;6.998;2023-04-25T13:04:14;5.37;;;1.47;;
3141;SDS011;1581;51.568;6.998;2023-04-25T13:06:42;8.80;;;2.73;;
3141;SDS011;1581;51.568;6.998;2023-04-25T13:09:10;3.57;;;1.30;;
3141;SDS011;1581;51.568;6.998;2023-04-25T13:11:38;6.70;;;1.60;;
3141;SDS011;1581;51.568;6.998;2023-04-25T13:14:07;5.07;;;1.30;;
3141;SDS011;1581;51.568;6.998;2023-04-25T13:16:34;4.93;;;1.40;;
3141;SDS011;1581;51.568;6.998;2023-04-25T13:19:03;7.73;;;1.53;;
3141;SDS011;1581;51.568;6.998;2023-04-25T13:21:37;2.03;;;1.57;;
3141;SDS011;1581;51.568;6.998;2023-04-25T13:24:05;4.40;;;1.70;;
3141;SDS011;1581;51.568;6.998;2023-04-25T13:26:33;4.03;;;1.23;;
3141;SDS011;1581;51.568;6.998;2023-04-25T13:29:01;6.47;;;2.73;;
3141;SDS011;1581;51.568;6.998;2023-04-25T13:31:31;10.00;;;2.20;;
3141;SDS011;1581;51.568;6.998;2023-04-25T13:33:59;1.83;;;1.23;;
3141;SDS011;1581;51.568;6.998;2023-04-25T13:36:27;4.75;;;2.00;;
3141;SDS011;1581;51.568;6.998;2023-04-25T13:38:57;1.30;;;1.02;;
3141;SDS011;1581;51.568;6.998;2023-04-25T13:41:25;4.15;;;1.35;;
3141;SDS011;1581;51.568;6.998;2023-04-25T13:43:54;4.90;;;1.30;;
3141;SDS011;1581;51.568;6.998;2023-04-25T13:46:22;7.15;;;1.83;;
3141;SDS011;1581;51.568;6.998;2023-04-25T13:48:50;1.35;;;1.00;;
3141;SDS011;1581;51.568;6.998;2023-04-25T13:51:18;1.05;;;0.95;;
3141;SDS011;1581;51.568;6.998;2023-04-25T13:53:46;1.63;;;0.95;;
3141;SDS011;1581;51.568;6.998;2023-04-25T13:56:15;1.70;;;0.77;;
3141;SDS011;1581;51.568;6.998;2023-04-25T13:58:44;3.50;;;0.75;;
3141;SDS011;1581;51.568;6.998;2023-04-25T14:01:12;1.65;;;0.75;;
3141;SDS011;1581;51.568;6.998;2023-04-25T14:03:40;0.90;;;0.90;;
3141;SDS011;1581;51.568;6.998;2023-04-25T14:06:08;0.85;;;0.85;;
3141;SDS011;1581;51.568;6.998;2023-04-25T14:08:37;1.00;;;0.90;;
3141;SDS011;1581;51.568;6.998;2023-04-25T14:11:05;1.98;;;0.90;;
3141;SDS011;1581;51.568;6.998;2023-04-25T14:13:34;3.92;;;0.90;;
3141;SDS011;1581;51.568;6.998;2023-04-25T14:16:02;0.70;;;0.70;;
3141;SDS011;1581;51.568;6.998;2023-04-25T14:18:31;1.02;;;0.70;;
3141;SDS011;1581;51.568;6.998;2023-04-25T14:20:59;0.88;;;0.68;;
3141;SDS011;1581;51.568;6.998;2023-04-25T14:23:27;1.00;;;0.90;;
3141;SDS011;1581;51.568;6.998;2023-04-25T14:25:55;2.92;;;1.23;;
3141;SDS011;1581;51.568;6.998;2023-04-25T14:28:22;1.88;;;0.80;;
3141;SDS011;1581;51.568;6.998;2023-04-25T14:30:51;1.88;;;0.88;;
3141;SDS011;1581;51.568;6.998;2023-04-25T14:33:20;1.85;;;1.02;;
3141;SDS011;1581;51.568;6.998;2023-04-25T14:35:49;2.63;;;0.95;;
3141;SDS011;1581;51.568;6.998;2023-04-25T14:38:18;3.10;;;1.20;;
3141;SDS011;1581;51.568;6.998;2023-04-25T14:40:48;4.03;;;1.48;;
3141;SDS011;1581;51.568;6.998;2023-04-25T14:43:16;3.53;;;0.98;;
3141;SDS011;1581;51.568;6.998;2023-04-25T14:45:44;4.13;;;1.50;;
3141;SDS011;1581;51.568;6.998;2023-04-25T14:48:14;2.67;;;1.13;;
3141;SDS011;1581;51.568;6.998;2023-04-25T14:50:44;2.80;;;1.00;;
3141;SDS011;1581;51.568;6.998;2023-04-25T14:53:12;4.70;;;1.10;;
3141;SDS011;1581;51.568;6.998;2023-04-25T14:55:40;4.80;;;1.70;;
3141;SDS011;1581;51.568;6.998;2023-04-25T14:58:08;8.88;;;1.30;;
3141;SDS011;1581;51.568;6.998;2023-04-25T15:00:36;8.50;;;2.03;;
3141;SDS011;1581;51.568;6.998;2023-04-25T15:03:04;3.42;;;1.30;;
3141;SDS011;1581;51.568;6.998;2023-04-25T15:05:34;5.82;;;1.50;;
3141;SDS011;1581;51.568;6.998;2023-04-25T15:08:01;1.88;;;1.05;;
3141;SDS011;1581;51.568;6.998;2023-04-25T15:10:29;1.42;;;0.82;;
3141;SDS011;1581;51.568;6.998;2023-04-25T15:12:58;1.27;;;1.00;;
3141;SDS011;1581;51.568;6.998;2023-04-25T15:15:25;2.95;;;1.33;;
3141;SDS011;1581;51.568;6.998;2023-04-25T15:17:55;1.35;;;0.98;;
3141;SDS011;1581;51.568;6.998;2023-04-25T15:20:25;4.72;;;1.40;;
3141;SDS011;1581;51.568;6.998;2023-04-25T15:22:54;2.58;;;1.33;;